createdAt,value
2023-09-03T00:00:48.098Z,99710.31
2023-09-03T00:03:15.524Z,99685.09
2023-09-03T00:05:50.578Z,99713.75
2023-09-03T00:08:18.288Z,99696.34
2023-09-03T00:10:49.502Z,99720.97
2023-09-03T00:13:16.653Z,99731.59
2023-09-03T00:15:43.795Z,99688.81
2023-09-03T00:18:15.728Z,99717.47
2023-09-03T00:20:55.666Z,99711.28
2023-09-03T00:23:22.765Z,99710.31
2023-09-03T00:25:49.951Z,99744.66
2023-09-03T00:28:17.068Z,99724.59
2023-09-03T00:30:44.227Z,99745.75
2023-09-03T00:33:11.355Z,99713.47
2023-09-03T00:35:40.332Z,99733.66
2023-09-03T00:38:07.368Z,99734.53
2023-09-03T00:40:40.496Z,99737.28
2023-09-03T00:43:07.517Z,99719.72
2023-09-03T00:45:34.886Z,99712.75
2023-09-03T00:48:02.426Z,99740.81
2023-09-03T00:50:31.095Z,99739.19
2023-09-03T00:52:58.240Z,99723.56
2023-09-03T00:55:25.328Z,99735.88
2023-09-03T00:57:52.502Z,99746.56
2023-09-03T01:00:19.807Z,99743.16
2023-09-03T01:02:48.305Z,99743.28
2023-09-03T01:05:15.865Z,99742.56
2023-09-03T01:07:42.945Z,99760.09
2023-09-03T01:10:10.232Z,99724.38
2023-09-03T01:12:48.012Z,99736.56
2023-09-03T01:15:22.780Z,99739.19
2023-09-03T01:17:59.892Z,99742.66
2023-09-03T01:21:07.336Z,99755.72
2023-09-03T01:23:43.707Z,99710.25
2023-09-03T01:26:47.829Z,99748.84
2023-09-03T01:29:17.540Z,99704.22
2023-09-03T01:31:45.711Z,99726.03
2023-09-03T01:34:14.073Z,99724.38
2023-09-03T01:36:41.755Z,99735.63
2023-09-03T01:39:08.923Z,99746.19
2023-09-03T01:41:38.033Z,99719.88
2023-09-03T01:44:06.539Z,99748.81
2023-09-03T01:46:48.096Z,99740.75
2023-09-03T01:49:25.274Z,99745.16
2023-09-03T01:52:14.328Z,99748.59
2023-09-03T01:54:48.582Z,99730.06
2023-09-03T01:57:28.871Z,99761.75
2023-09-03T01:59:59.160Z,99752.13
2023-09-03T02:02:26.940Z,99761.97
2023-09-03T02:04:55.988Z,99758.47
2023-09-03T02:07:23.077Z,99757.78
2023-09-03T02:09:50.124Z,99752.69
2023-09-03T02:12:24.783Z,99744.00
2023-09-03T02:14:53.768Z,99731.63
2023-09-03T02:17:21.563Z,99727.38
2023-09-03T02:19:53.239Z,99748.34
2023-09-03T02:22:40.161Z,99750.13
2023-09-03T02:25:08.220Z,99760.75
2023-09-03T02:27:35.254Z,99740.63
2023-09-03T02:30:02.244Z,99745.03
2023-09-03T02:32:33.537Z,99730.19
2023-09-03T02:35:00.886Z,99742.44
2023-09-03T02:37:31.777Z,99759.97
2023-09-03T02:39:58.836Z,99723.19
2023-09-03T02:42:26.699Z,99756.53
2023-09-03T02:44:54.218Z,99753.16
2023-09-03T02:47:21.233Z,99730.44
2023-09-03T02:49:48.217Z,99675.38
2023-09-03T02:52:16.135Z,99732.38
2023-09-03T02:54:43.179Z,99730.75
2023-09-03T02:57:10.182Z,99758.72
2023-09-03T02:59:37.257Z,99760.66
2023-09-03T03:02:04.444Z,99772.97
2023-09-03T03:04:31.540Z,99748.53
2023-09-03T03:06:58.600Z,99750.31
2023-09-03T03:09:25.631Z,99776.63
2023-09-03T03:11:52.671Z,99761.84
2023-09-03T03:14:19.956Z,99781.13
2023-09-03T03:16:48.142Z,99774.97
2023-09-03T03:19:17.104Z,99775.88
2023-09-03T03:21:44.166Z,99768.06
2023-09-03T03:24:11.459Z,99755.81
2023-09-03T03:26:40.968Z,99752.38
2023-09-03T03:29:13.582Z,99789.19
2023-09-03T03:31:45.601Z,99769.03
2023-09-03T03:34:13.678Z,99762.91
2023-09-03T03:36:42.629Z,99763.88
2023-09-03T03:39:09.631Z,99769.81
2023-09-03T03:41:37.996Z,99786.59
2023-09-03T03:44:07.667Z,99751.44
2023-09-03T03:46:34.775Z,99772.47
2023-09-03T03:49:01.700Z,99787.41
2023-09-03T03:51:28.840Z,99784.72
2023-09-03T03:53:57.191Z,99749.63
2023-09-03T03:56:24.283Z,99785.50
2023-09-03T03:58:51.607Z,99777.59
2023-09-03T04:01:20.652Z,99752.19
2023-09-03T04:03:50.318Z,99781.00
2023-09-03T04:06:18.075Z,99775.72
2023-09-03T04:08:45.394Z,99766.00
2023-09-03T04:11:14.860Z,99763.16
2023-09-03T04:13:42.649Z,99752.53
2023-09-03T04:16:11.643Z,99781.28
2023-09-03T04:18:39.385Z,99772.41
2023-09-03T04:21:06.746Z,99769.66
2023-09-03T04:23:34.796Z,99779.28
2023-09-03T04:26:04.719Z,99745.91
2023-09-03T04:28:33.988Z,99791.22
2023-09-03T04:31:05.505Z,99768.38
2023-09-03T04:33:36.419Z,99774.47
2023-09-03T04:36:05.852Z,99771.91
2023-09-03T04:38:35.480Z,99802.44
2023-09-03T04:41:06.855Z,99806.69
2023-09-03T04:44:10.843Z,99793.38
2023-09-03T04:46:41.608Z,99800.31
2023-09-03T04:49:09.014Z,99785.34
2023-09-03T04:51:36.356Z,99800.91
2023-09-03T05:00:34.418Z,99732.03
2023-09-03T05:03:06.560Z,99797.56
2023-09-03T05:15:04.153Z,99789.16
2023-09-03T05:18:03.609Z,99797.63
2023-09-03T05:20:31.357Z,99787.59
2023-09-03T05:26:23.779Z,99796.84
2023-09-03T05:32:15.631Z,99796.31
2023-09-03T05:34:42.719Z,99789.84
2023-09-03T05:37:10.034Z,99788.22
2023-09-03T05:39:37.672Z,99755.22
2023-09-03T05:42:04.992Z,99793.78
2023-09-03T05:44:32.142Z,99782.41
2023-09-03T05:46:59.465Z,99786.22
2023-09-03T05:49:27.159Z,99782.53
2023-09-03T05:51:54.216Z,99779.38
2023-09-03T05:54:21.302Z,99783.38
2023-09-03T05:56:48.478Z,99770.59
2023-09-03T05:59:15.622Z,99797.38
2023-09-03T06:01:42.764Z,99790.66
2023-09-03T06:04:15.316Z,99790.28
2023-09-03T06:06:44.263Z,99790.19
2023-09-03T06:09:11.365Z,99785.94
2023-09-03T06:11:38.801Z,99782.59
2023-09-03T06:14:05.906Z,99769.88
2023-09-03T06:16:32.977Z,99785.31
2023-09-03T06:19:00.218Z,99786.72
2023-09-03T06:21:28.324Z,99757.97
2023-09-03T06:23:55.375Z,99775.19
2023-09-03T06:26:22.546Z,99768.88
2023-09-03T06:28:49.517Z,99761.19
2023-09-03T06:31:16.656Z,99743.41
2023-09-03T06:33:45.158Z,99746.69
2023-09-03T06:36:13.238Z,99735.19
2023-09-03T06:38:43.843Z,99751.53
2023-09-03T06:41:11.399Z,99775.72
2023-09-03T06:43:38.575Z,99748.47
2023-09-03T06:46:05.610Z,99756.75
2023-09-03T06:48:32.548Z,99780.53
2023-09-03T06:50:59.658Z,99776.97
2023-09-03T06:53:27.084Z,99788.53
2023-09-03T06:55:54.119Z,99755.94
2023-09-03T06:58:22.042Z,99774.34
2023-09-03T07:00:51.104Z,99778.13
2023-09-03T07:03:19.446Z,99774.59
2023-09-03T07:05:47.167Z,99780.16
2023-09-03T07:08:14.832Z,99788.47
2023-09-03T07:10:41.821Z,99781.09
2023-09-03T07:13:10.228Z,99760.66
2023-09-03T07:15:37.852Z,99750.53
2023-09-03T07:18:05.917Z,99772.09
2023-09-03T07:20:33.073Z,99773.91
2023-09-03T07:23:00.148Z,99786.66
2023-09-03T07:25:27.172Z,99784.22
2023-09-03T07:27:54.252Z,99782.78
2023-09-03T07:30:21.261Z,99778.22
2023-09-03T07:32:48.257Z,99783.72
2023-09-03T07:35:15.756Z,99761.84
2023-09-03T07:37:44.345Z,99765.88
2023-09-03T07:40:12.295Z,99759.88
2023-09-03T07:42:39.442Z,99782.38
2023-09-03T07:45:07.188Z,99766.97
2023-09-03T07:47:34.352Z,99782.53
2023-09-03T07:50:02.587Z,99783.06
2023-09-03T07:52:30.539Z,99786.69
2023-09-03T07:54:57.653Z,99786.69
2023-09-03T07:57:25.214Z,99786.00
2023-09-03T07:59:53.596Z,99792.88
2023-09-03T08:02:20.706Z,99777.41
2023-09-03T08:04:49.185Z,99780.72
2023-09-03T08:07:16.353Z,99789.41
2023-09-03T08:09:43.964Z,99769.13
2023-09-03T08:12:11.019Z,99794.56
2023-09-03T08:14:39.217Z,99794.38
2023-09-03T08:17:06.271Z,99806.25
2023-09-03T08:19:33.338Z,99789.56
2023-09-03T08:22:00.435Z,99807.59
2023-09-03T08:24:28.482Z,99801.31
2023-09-03T08:26:55.500Z,99791.84
2023-09-03T08:29:22.537Z,99791.91
2023-09-03T08:31:49.601Z,99797.06
2023-09-03T08:34:16.767Z,99795.75
2023-09-03T08:36:43.770Z,99792.56
2023-09-03T08:39:10.880Z,99788.28
2023-09-03T08:41:40.087Z,99795.16
2023-09-03T08:44:27.269Z,99744.50
2023-09-03T08:47:00.689Z,99774.38
2023-09-03T08:49:32.260Z,99777.09
2023-09-03T08:51:59.894Z,99792.41
2023-09-03T08:54:28.284Z,99779.16
2023-09-03T08:56:56.727Z,99799.31
2023-09-03T08:59:23.818Z,99791.69
2023-09-03T09:01:54.679Z,99788.34
2023-09-03T09:04:22.973Z,99790.19
2023-09-03T09:06:50.801Z,99760.47
2023-09-03T09:09:18.325Z,99773.63
2023-09-03T09:11:56.517Z,99793.28
2023-09-03T09:14:32.611Z,99785.00
2023-09-03T09:16:59.617Z,99786.72
2023-09-03T09:19:26.615Z,99786.94
2023-09-03T09:21:54.141Z,99791.88
2023-09-03T09:24:21.111Z,99799.28
2023-09-03T09:26:48.205Z,99756.56
2023-09-03T09:29:15.283Z,99794.03
2023-09-03T09:31:42.227Z,99795.00
2023-09-03T09:34:14.391Z,99776.59
2023-09-03T09:36:57.281Z,99774.84
2023-09-03T09:39:26.351Z,99794.19
2023-09-03T09:42:09.128Z,99805.19
2023-09-03T09:44:36.223Z,99778.28
2023-09-03T09:47:19.307Z,99799.09
2023-09-03T09:49:49.578Z,99791.44
2023-09-03T09:52:17.202Z,99789.34
2023-09-03T09:54:46.244Z,99745.75
2023-09-03T09:57:15.647Z,99789.16
2023-09-03T09:59:44.122Z,99769.41
2023-09-03T10:02:15.784Z,99789.28
2023-09-03T10:04:53.710Z,99761.84
2023-09-03T10:07:21.384Z,99786.13
2023-09-03T10:09:48.488Z,99782.81
2023-09-03T10:12:15.528Z,99790.25
2023-09-03T10:14:42.876Z,99777.25
2023-09-03T10:17:14.291Z,99781.19
2023-09-03T10:19:48.470Z,99787.53
2023-09-03T10:22:20.472Z,99751.44
2023-09-03T10:24:53.681Z,99774.28
2023-09-03T10:27:25.962Z,99773.66
2023-09-03T10:29:56.488Z,99741.88
2023-09-03T10:32:24.513Z,99777.34
2023-09-03T10:34:51.727Z,99766.66
2023-09-03T10:37:19.968Z,99752.81
2023-09-03T10:39:47.443Z,99776.34
2023-09-03T10:42:17.754Z,99785.66
2023-09-03T10:44:51.662Z,99784.09
2023-09-03T10:47:19.494Z,99794.81
2023-09-03T10:49:48.675Z,99776.53
2023-09-03T10:52:28.495Z,99798.25
2023-09-03T10:55:14.634Z,99794.44
2023-09-03T10:57:43.810Z,99786.97
2023-09-03T11:00:14.530Z,99795.81
2023-09-03T11:02:48.558Z,99791.03
2023-09-03T11:05:23.718Z,99790.91
2023-09-03T11:08:30.712Z,99788.91
2023-09-03T11:10:58.987Z,99772.16
2023-09-03T11:13:37.713Z,99772.91
2023-09-03T11:16:06.236Z,99775.59
2023-09-03T11:18:34.322Z,99789.78
2023-09-03T11:21:02.817Z,99785.41
2023-09-03T11:23:33.918Z,99789.78
2023-09-03T11:26:04.822Z,99781.13
2023-09-03T11:28:37.346Z,99784.09
2023-09-03T11:31:05.176Z,99785.72
2023-09-03T11:33:32.588Z,99777.50
2023-09-03T11:36:01.431Z,99786.00
2023-09-03T11:38:31.753Z,99798.19
2023-09-03T11:41:00.315Z,99789.66
2023-09-03T11:43:30.341Z,99799.03
2023-09-03T11:45:57.710Z,99797.31
2023-09-03T11:48:33.846Z,99802.84
2023-09-03T11:51:13.097Z,99768.94
2023-09-03T11:53:43.735Z,99793.88
2023-09-03T11:56:16.335Z,99780.66
2023-09-03T11:58:44.984Z,99787.38
2023-09-03T12:01:14.208Z,99780.78
2023-09-03T12:03:42.123Z,99793.47
2023-09-03T12:06:09.428Z,99792.13
2023-09-03T12:08:36.859Z,99775.78
2023-09-03T12:11:03.978Z,99774.09
2023-09-03T12:13:33.080Z,99792.44
2023-09-03T12:16:07.898Z,99777.28
2023-09-03T12:18:36.539Z,99773.41
2023-09-03T12:21:07.151Z,99772.72
2023-09-03T12:23:36.135Z,99756.41
2023-09-03T12:26:03.877Z,99724.91
2023-09-03T12:28:40.192Z,99783.06
2023-09-03T12:31:08.184Z,99780.75
2023-09-03T12:33:36.160Z,99789.13
2023-09-03T12:36:16.799Z,99788.91
2023-09-03T12:38:59.407Z,99768.84
2023-09-03T12:41:29.932Z,99776.03
2023-09-03T12:43:57.466Z,99785.75
2023-09-03T12:46:24.849Z,99759.06
2023-09-03T12:48:52.115Z,99777.84
2023-09-03T12:51:19.516Z,99782.41
2023-09-03T12:53:48.973Z,99759.38
2023-09-03T12:56:16.462Z,99780.06
2023-09-03T12:58:43.521Z,99761.31
2023-09-03T13:01:13.678Z,99774.31
2023-09-03T13:03:40.971Z,99756.63
2023-09-03T13:06:09.702Z,99775.16
2023-09-03T13:08:38.415Z,99773.00
2023-09-03T13:11:05.607Z,99779.44
2023-09-03T13:13:32.917Z,99733.66
2023-09-03T13:16:01.572Z,99759.72
2023-09-03T13:18:28.814Z,99768.31
2023-09-03T13:20:56.066Z,99748.56
2023-09-03T13:23:24.002Z,99731.84
2023-09-03T13:25:51.249Z,99745.41
2023-09-03T13:28:18.345Z,99753.38
2023-09-03T13:30:57.244Z,99754.28
2023-09-03T13:33:33.372Z,99770.56
2023-09-03T13:36:01.280Z,99761.56
2023-09-03T13:38:28.442Z,99760.16
2023-09-03T13:40:55.680Z,99727.03
2023-09-03T13:43:24.951Z,99759.53
2023-09-03T13:45:56.351Z,99755.88
2023-09-03T13:48:26.451Z,99729.03
2023-09-03T13:50:55.722Z,99746.41
2023-09-03T13:53:23.367Z,99758.75
2023-09-03T13:55:50.664Z,99722.00
2023-09-03T13:58:18.788Z,99744.56
2023-09-03T14:00:46.368Z,99773.59
2023-09-03T14:03:13.595Z,99747.63
2023-09-03T14:05:40.810Z,99773.81
2023-09-03T14:08:08.041Z,99763.34
2023-09-03T14:10:35.297Z,99713.09
2023-09-03T14:13:02.411Z,99746.09
2023-09-03T14:15:33.041Z,99760.06
2023-09-03T14:18:00.185Z,99750.41
2023-09-03T14:20:27.302Z,99760.13
2023-09-03T14:22:54.611Z,99770.13
2023-09-03T14:25:23.257Z,99776.91
2023-09-03T14:27:50.752Z,99751.97
2023-09-03T14:30:17.977Z,99768.13
2023-09-03T14:32:45.030Z,99748.13
2023-09-03T14:35:12.161Z,99771.25
2023-09-03T14:37:39.236Z,99740.91
2023-09-03T14:40:07.322Z,99728.19
2023-09-03T14:42:34.360Z,99764.13
2023-09-03T14:45:01.381Z,99770.91
2023-09-03T14:47:31.254Z,99760.47
2023-09-03T14:49:58.172Z,99758.63
2023-09-03T14:52:26.498Z,99742.75
2023-09-03T14:54:53.587Z,99719.16
2023-09-03T14:57:20.604Z,99673.25
2023-09-03T14:59:47.708Z,99750.44
2023-09-03T15:02:14.790Z,99756.78
2023-09-03T15:04:41.848Z,99766.50
2023-09-03T15:07:08.918Z,99760.88
2023-09-03T15:09:35.934Z,99759.22
2023-09-03T15:12:03.057Z,99758.47
2023-09-03T15:14:30.047Z,99738.53
2023-09-03T15:16:57.052Z,99749.63
2023-09-03T15:19:24.283Z,99748.69
2023-09-03T15:21:51.380Z,99753.72
2023-09-03T15:24:18.419Z,99721.47
2023-09-03T15:26:46.054Z,99727.38
2023-09-03T15:29:13.189Z,99740.56
2023-09-03T15:31:40.219Z,99734.38
2023-09-03T15:34:10.050Z,99762.38
2023-09-03T15:36:37.164Z,99768.25
2023-09-03T15:39:04.573Z,99774.06
2023-09-03T15:41:31.706Z,99777.38
2023-09-03T15:44:02.375Z,99734.25
2023-09-03T15:46:29.692Z,99784.72
2023-09-03T15:48:56.942Z,99784.94
2023-09-03T15:51:24.120Z,99763.47
2023-09-03T15:53:51.147Z,99766.94
2023-09-03T15:56:18.270Z,99732.53
2023-09-03T15:58:45.314Z,99750.31
2023-09-03T16:01:13.578Z,99788.16
2023-09-03T16:03:40.677Z,99784.94
2023-09-03T16:06:08.514Z,99753.06
2023-09-03T16:08:35.636Z,99774.13
2023-09-03T16:11:06.661Z,99782.72
2023-09-03T16:13:36.202Z,99749.75
2023-09-03T16:16:07.744Z,99781.38
2023-09-03T16:18:35.147Z,99767.44
2023-09-03T16:21:02.293Z,99776.59
2023-09-03T16:23:31.655Z,99767.22
2023-09-03T16:25:58.852Z,99772.75
2023-09-03T16:28:26.122Z,99772.03
2023-09-03T16:31:00.115Z,99782.84
2023-09-03T16:33:27.801Z,99784.03
2023-09-03T16:36:01.816Z,99748.25
2023-09-03T16:38:29.412Z,99797.63
2023-09-03T16:40:57.850Z,99765.28
2023-09-03T16:43:26.047Z,99754.31
2023-09-03T16:45:53.299Z,99751.06
2023-09-03T16:48:20.515Z,99759.13
2023-09-03T16:50:47.686Z,99798.72
2023-09-03T16:53:14.713Z,99802.44
2023-09-03T16:55:42.000Z,99804.53
2023-09-03T16:58:09.238Z,99802.25
2023-09-03T17:00:39.501Z,99771.94
2023-09-03T17:03:06.856Z,99785.88
2023-09-03T17:05:34.577Z,99791.47
2023-09-03T17:08:01.693Z,99792.31
2023-09-03T17:13:14.967Z,99802.66
2023-09-03T17:15:42.806Z,99793.22
2023-09-03T17:18:10.945Z,99818.91
2023-09-03T17:20:42.414Z,99815.63
2023-09-03T17:23:09.588Z,99811.50
2023-09-03T17:25:36.861Z,99794.28
2023-09-03T17:28:04.271Z,99813.03
2023-09-03T17:30:32.073Z,99824.84
2023-09-03T17:33:01.966Z,99834.06
2023-09-03T17:35:28.988Z,99838.69
2023-09-03T17:37:56.225Z,99808.88
2023-09-03T17:40:23.306Z,99834.06
2023-09-03T17:42:50.337Z,99822.06
2023-09-03T17:45:17.654Z,99776.09
2023-09-03T17:47:44.788Z,99821.06
2023-09-03T17:50:14.305Z,99821.81
2023-09-03T17:52:41.654Z,99818.13
2023-09-03T17:55:08.949Z,99784.03
2023-09-03T17:57:36.171Z,99818.06
2023-09-03T18:00:04.102Z,99791.78
2023-09-03T18:02:40.491Z,99782.78
2023-09-03T18:05:17.461Z,99804.56
2023-09-03T18:07:47.356Z,99758.66
2023-09-03T18:10:17.563Z,99805.91
2023-09-03T18:12:48.672Z,99813.97
2023-09-03T18:15:19.250Z,99819.16
2023-09-03T18:17:47.465Z,99814.84
2023-09-03T18:20:23.407Z,99822.44
2023-09-03T18:22:51.343Z,99714.97
2023-09-03T18:25:27.670Z,99721.88
2023-09-03T18:27:57.213Z,99817.31
2023-09-03T18:30:25.139Z,99771.63
2023-09-03T18:32:52.965Z,99824.00
2023-09-03T18:35:20.380Z,99795.19
2023-09-03T18:37:48.356Z,99816.50
2023-09-03T18:40:15.636Z,99778.78
2023-09-03T18:42:45.900Z,99794.66
2023-09-03T18:45:12.943Z,99820.59
2023-09-03T18:47:40.923Z,99829.44
2023-09-03T18:50:09.229Z,99812.00
2023-09-03T18:52:36.880Z,99778.78
2023-09-03T18:55:04.685Z,99804.88
2023-09-03T18:57:37.651Z,99794.44
2023-09-03T19:00:08.768Z,99808.41
2023-09-03T19:02:37.432Z,99816.31
2023-09-03T19:05:05.312Z,99799.75
2023-09-03T19:07:32.926Z,99815.72
2023-09-03T19:10:02.626Z,99815.94
2023-09-03T19:12:37.091Z,99818.53
2023-09-03T19:15:05.207Z,99815.16
2023-09-03T19:17:33.238Z,99787.41
2023-09-03T19:20:03.570Z,99784.00
2023-09-03T19:22:31.128Z,99816.47
2023-09-03T19:25:02.481Z,99799.16
2023-09-03T19:27:32.963Z,99822.13
2023-09-03T19:30:03.570Z,99815.19
2023-09-03T19:32:33.033Z,99792.56
2023-09-03T19:35:00.355Z,99817.97
2023-09-03T19:37:27.432Z,99823.03
2023-09-03T19:39:54.700Z,99826.50
2023-09-03T19:42:24.099Z,99816.63
2023-09-03T19:44:51.291Z,99816.72
2023-09-03T19:47:18.596Z,99810.50
2023-09-03T19:49:45.627Z,99801.09
2023-09-03T19:52:17.851Z,99813.16
2023-09-03T19:54:45.076Z,99819.34
2023-09-03T19:57:12.138Z,99814.03
2023-09-03T19:59:39.587Z,99825.53
2023-09-03T20:02:07.005Z,99815.16
2023-09-03T20:04:37.119Z,99808.34
2023-09-03T20:07:05.074Z,99824.00
2023-09-03T20:09:32.107Z,99827.19
2023-09-03T20:11:59.119Z,99809.44
2023-09-03T20:14:26.168Z,99790.22
2023-09-03T20:16:53.207Z,99823.50
2023-09-03T20:19:20.341Z,99807.78
2023-09-03T20:21:49.003Z,99783.72
2023-09-03T20:24:16.682Z,99804.97
2023-09-03T20:26:43.684Z,99802.94
2023-09-03T20:29:13.375Z,99787.41
2023-09-03T20:31:45.232Z,99791.91
2023-09-03T20:34:12.827Z,99784.06
2023-09-03T20:36:40.468Z,99815.69
2023-09-03T20:39:08.122Z,99786.72
2023-09-03T20:41:38.434Z,99817.63
2023-09-03T20:44:06.167Z,99825.34
2023-09-03T20:46:34.283Z,99828.66
2023-09-03T20:49:04.769Z,99813.44
2023-09-03T20:51:34.972Z,99807.34
2023-09-03T20:54:01.972Z,99832.75
2023-09-03T20:56:47.610Z,99825.00
2023-09-03T20:59:14.709Z,99834.06
2023-09-03T21:01:41.670Z,99842.63
2023-09-03T21:04:08.787Z,99831.22
2023-09-03T21:06:35.717Z,99823.34
2023-09-03T21:09:04.259Z,99834.88
2023-09-03T21:11:34.257Z,99834.00
2023-09-03T21:14:01.265Z,99821.94
2023-09-03T21:16:28.388Z,99839.50
2023-09-03T21:18:55.969Z,99814.88
2023-09-03T21:21:23.104Z,99843.66
2023-09-03T21:23:50.968Z,99845.28
2023-09-03T21:26:18.654Z,99843.28
2023-09-03T21:28:46.136Z,99830.31
2023-09-03T21:31:20.270Z,99836.63
2023-09-03T21:33:49.042Z,99827.09
2023-09-03T21:36:20.600Z,99847.53
2023-09-03T21:38:48.904Z,99855.56
2023-09-03T21:41:16.149Z,99832.84
2023-09-03T21:43:50.113Z,99849.47
2023-09-03T21:46:17.167Z,99846.00
2023-09-03T21:48:44.265Z,99826.16
2023-09-03T21:51:19.381Z,99829.75
2023-09-03T21:53:47.286Z,99848.16
2023-09-03T21:56:14.385Z,99842.31
2023-09-03T21:58:41.621Z,99861.25
2023-09-03T22:01:09.125Z,99856.44
2023-09-03T22:03:36.181Z,99848.00
2023-09-03T22:06:05.722Z,99853.66
2023-09-03T22:08:33.924Z,99859.09
2023-09-03T22:11:01.422Z,99829.53
2023-09-03T22:13:30.580Z,99846.91
2023-09-03T22:15:57.961Z,99854.81
2023-09-03T22:18:25.847Z,99849.44
2023-09-03T22:20:53.603Z,99859.97
2023-09-03T22:23:20.602Z,99861.53
2023-09-03T22:25:48.195Z,99820.34
2023-09-03T22:28:15.175Z,99860.66
2023-09-03T22:30:42.319Z,99862.91
2023-09-03T22:33:09.321Z,99873.88
2023-09-03T22:35:36.485Z,99876.97
2023-09-03T22:38:03.837Z,99861.34
2023-09-03T22:40:31.053Z,99867.84
2023-09-03T22:42:58.040Z,99870.66
2023-09-03T22:45:25.114Z,99862.91
2023-09-03T22:47:52.171Z,99869.00
2023-09-03T22:50:19.349Z,99845.31
2023-09-03T22:52:46.410Z,99860.22
2023-09-03T22:55:13.343Z,99876.09
2023-09-03T22:57:40.343Z,99863.84
2023-09-03T23:00:08.752Z,99865.75
2023-09-03T23:02:35.866Z,99876.50
2023-09-03T23:05:03.050Z,99870.41
2023-09-03T23:07:31.721Z,99873.94
2023-09-03T23:09:58.858Z,99872.25
2023-09-03T23:12:25.982Z,99874.91
2023-09-03T23:14:52.887Z,99870.63
2023-09-03T23:17:19.928Z,99862.72
2023-09-03T23:19:46.844Z,99873.38
2023-09-03T23:22:13.828Z,99864.59
2023-09-03T23:24:40.859Z,99862.84
2023-09-03T23:27:07.884Z,99857.47
2023-09-03T23:29:34.909Z,99861.00
2023-09-03T23:32:01.899Z,99845.13
2023-09-03T23:34:29.202Z,99841.53
2023-09-03T23:36:56.146Z,99852.16
2023-09-03T23:39:23.790Z,99850.31
2023-09-03T23:41:50.830Z,99839.63
2023-09-03T23:44:17.798Z,99847.59
2023-09-03T23:46:46.534Z,99807.19
2023-09-03T23:49:14.988Z,99830.09
2023-09-03T23:51:42.005Z,99848.34
2023-09-03T23:54:09.340Z,99841.44
2023-09-03T23:56:36.310Z,99848.34
2023-09-03T23:59:03.432Z,99815.13
